createdAt,value
2023-04-09T00:00:13.634Z,6.47
2023-04-09T00:02:40.842Z,6.07
2023-04-09T00:05:07.921Z,4.73
2023-04-09T00:07:34.690Z,5.50
2023-04-09T00:10:01.533Z,7.17
2023-04-09T00:12:30.211Z,5.93
2023-04-09T00:14:57.670Z,6.57
2023-04-09T00:17:24.569Z,5.73
2023-04-09T00:19:51.363Z,9.17
2023-04-09T00:22:18.092Z,6.43
2023-04-09T00:24:44.750Z,6.87
2023-04-09T00:27:11.477Z,6.00
2023-04-09T00:29:38.199Z,5.20
2023-04-09T00:32:05.312Z,4.80
2023-04-09T00:34:32.098Z,7.63
2023-04-09T00:36:58.857Z,6.67
2023-04-09T00:39:25.619Z,9.60
2023-04-09T00:42:02.410Z,8.63
2023-04-09T00:44:30.329Z,7.60
2023-04-09T00:46:58.938Z,9.47
2023-04-09T00:49:26.400Z,7.57
2023-04-09T00:51:53.789Z,6.93
2023-04-09T00:54:20.794Z,9.83
2023-04-09T00:56:47.960Z,16.83
2023-04-09T00:59:15.298Z,16.33
2023-04-09T01:01:42.001Z,20.33
2023-04-09T01:04:09.031Z,29.33
2023-04-09T01:06:38.672Z,23.00
2023-04-09T01:09:30.965Z,21.37
2023-04-09T01:12:12.196Z,23.00
2023-04-09T01:14:59.276Z,18.17
2023-04-09T01:17:34.536Z,18.73
2023-04-09T01:20:05.233Z,12.13
2023-04-09T01:23:02.660Z,13.87
2023-04-09T01:25:51.377Z,15.37
2023-04-09T01:28:27.778Z,16.37
2023-04-09T01:31:01.564Z,14.10
2023-04-09T01:33:30.786Z,15.97
2023-04-09T01:35:58.789Z,12.53
2023-04-09T01:38:26.696Z,10.40
2023-04-09T01:40:56.105Z,9.40
2023-04-09T01:43:24.233Z,12.43
2023-04-09T01:45:51.850Z,8.47
2023-04-09T01:48:19.643Z,8.33
2023-04-09T01:50:46.708Z,6.63
2023-04-09T01:53:14.005Z,10.63
2023-04-09T01:55:40.696Z,8.70
2023-04-09T01:58:07.370Z,7.97
2023-04-09T02:00:46.684Z,7.27
2023-04-09T02:03:28.370Z,6.30
2023-04-09T02:06:15.653Z,5.50
2023-04-09T02:08:47.689Z,5.33
2023-04-09T02:11:16.093Z,6.00
2023-04-09T02:13:44.095Z,6.60
2023-04-09T02:16:13.374Z,6.23
2023-04-09T02:18:40.155Z,6.23
2023-04-09T02:21:07.350Z,5.70
2023-04-09T02:23:34.947Z,5.23
2023-04-09T02:26:01.758Z,5.30
2023-04-09T02:28:28.686Z,5.17
2023-04-09T02:30:55.656Z,5.90
2023-04-09T02:33:22.401Z,6.40
2023-04-09T02:35:49.329Z,6.30
2023-04-09T02:38:16.151Z,6.57
2023-04-09T02:40:43.143Z,6.43
2023-04-09T02:43:10.471Z,6.03
2023-04-09T02:45:37.198Z,6.07
2023-04-09T02:48:04.130Z,5.40
2023-04-09T02:50:34.541Z,6.00
2023-04-09T02:53:01.499Z,5.70
2023-04-09T02:55:28.400Z,6.63
2023-04-09T02:57:55.215Z,6.90
2023-04-09T03:00:22.081Z,6.57
2023-04-09T03:02:48.842Z,5.90
2023-04-09T03:05:15.726Z,5.77
2023-04-09T03:07:42.571Z,7.37
2023-04-09T03:10:09.772Z,5.80
2023-04-09T03:12:36.520Z,7.37
2023-04-09T03:15:04.528Z,6.60
2023-04-09T03:17:32.035Z,7.30
2023-04-09T03:19:59.223Z,8.53
2023-04-09T03:22:38.080Z,5.27
2023-04-09T03:25:09.903Z,6.63
2023-04-09T03:27:36.606Z,7.97
2023-04-09T03:30:03.968Z,7.77
2023-04-09T03:32:39.501Z,6.43
2023-04-09T03:35:07.204Z,6.40
2023-04-09T03:37:33.886Z,7.43
2023-04-09T03:40:01.614Z,6.20
2023-04-09T03:42:31.253Z,6.40
2023-04-09T03:44:58.076Z,6.07
2023-04-09T03:47:39.428Z,6.80
2023-04-09T03:50:07.056Z,7.37
2023-04-09T03:52:45.516Z,6.50
2023-04-09T03:55:12.324Z,5.67
2023-04-09T03:57:38.984Z,7.50
2023-04-09T04:00:09.593Z,7.37
2023-04-09T04:02:50.682Z,6.43
2023-04-09T04:05:26.050Z,10.80
2023-04-09T04:07:54.615Z,5.47
2023-04-09T04:10:26.963Z,6.53
2023-04-09T04:12:53.707Z,6.60
2023-04-09T04:15:30.529Z,6.60
2023-04-09T04:17:57.235Z,6.67
2023-04-09T04:20:41.232Z,7.17
2023-04-09T04:23:12.123Z,5.13
2023-04-09T04:25:47.165Z,4.80
2023-04-09T04:28:18.187Z,6.20
2023-04-09T04:30:45.711Z,7.33
2023-04-09T04:33:13.168Z,9.00
2023-04-09T04:35:45.563Z,6.77
2023-04-09T04:38:28.981Z,5.83
2023-04-09T04:40:56.990Z,6.10
2023-04-09T04:43:24.184Z,5.93
2023-04-09T04:45:54.165Z,6.40
2023-04-09T04:48:24.644Z,6.67
2023-04-09T04:50:59.006Z,7.80
2023-04-09T04:53:29.920Z,8.07
2023-04-09T04:55:59.528Z,6.93
2023-04-09T04:58:27.193Z,5.93
2023-04-09T05:00:58.044Z,7.13
2023-04-09T05:03:27.014Z,6.50
2023-04-09T05:06:13.206Z,8.43
2023-04-09T05:08:43.416Z,6.27
2023-04-09T05:11:12.794Z,7.47
2023-04-09T05:13:40.663Z,7.87
2023-04-09T05:16:19.382Z,7.77
2023-04-09T05:18:52.277Z,7.40
2023-04-09T05:21:19.191Z,8.43
2023-04-09T05:23:46.680Z,7.03
2023-04-09T05:26:13.480Z,8.30
2023-04-09T05:28:53.948Z,7.03
2023-04-09T05:31:22.563Z,7.47
2023-04-09T05:33:56.374Z,8.77
2023-04-09T05:36:32.557Z,9.93
2023-04-09T05:39:00.295Z,8.00
2023-04-09T05:41:26.978Z,7.23
2023-04-09T05:44:07.703Z,6.27
2023-04-09T05:46:37.640Z,7.57
2023-04-09T05:49:04.855Z,8.00
2023-04-09T05:51:33.578Z,8.43
2023-04-09T05:54:01.173Z,9.67
2023-04-09T05:56:33.025Z,6.50
2023-04-09T05:59:00.582Z,8.23
2023-04-09T06:01:27.530Z,7.30
2023-04-09T06:03:57.827Z,7.07
2023-04-09T06:06:25.001Z,6.20
2023-04-09T06:08:51.749Z,6.70
2023-04-09T06:11:18.567Z,6.87
2023-04-09T06:13:45.323Z,7.73
2023-04-09T06:16:12.100Z,6.53
2023-04-09T06:18:38.818Z,8.17
2023-04-09T06:21:06.911Z,7.13
2023-04-09T06:23:35.264Z,6.87
2023-04-09T06:26:02.392Z,10.93
2023-04-09T06:28:29.479Z,7.60
2023-04-09T06:30:56.167Z,10.17
2023-04-09T06:33:23.141Z,9.87
2023-04-09T06:35:49.993Z,9.30
2023-04-09T06:38:17.164Z,9.67
2023-04-09T06:40:44.546Z,7.77
2023-04-09T06:43:11.233Z,8.27
2023-04-09T06:45:43.988Z,7.13
2023-04-09T06:48:11.375Z,9.53
2023-04-09T06:50:38.077Z,7.30
2023-04-09T06:53:06.928Z,8.90
2023-04-09T06:55:33.644Z,9.33
2023-04-09T06:58:01.196Z,9.33
2023-04-09T07:00:28.072Z,12.10
2023-04-09T07:02:54.931Z,12.10
2023-04-09T07:05:22.566Z,9.77
2023-04-09T07:07:49.356Z,11.03
2023-04-09T07:10:16.429Z,12.23
2023-04-09T07:12:43.131Z,13.77
2023-04-09T07:15:10.051Z,13.00
2023-04-09T07:17:36.823Z,11.87
2023-04-09T07:20:04.077Z,12.83
2023-04-09T07:22:31.062Z,13.20
2023-04-09T07:24:57.838Z,11.77
2023-04-09T07:27:26.442Z,13.00
2023-04-09T07:30:00.329Z,11.13
2023-04-09T07:32:30.826Z,15.10
2023-04-09T07:34:59.371Z,12.63
2023-04-09T07:37:26.985Z,13.17
2023-04-09T07:39:53.987Z,14.07
2023-04-09T07:42:20.767Z,14.03
2023-04-09T07:44:47.513Z,16.13
2023-04-09T07:47:14.253Z,13.73
2023-04-09T07:49:41.011Z,13.33
2023-04-09T07:52:08.130Z,14.37
2023-04-09T07:54:35.360Z,14.27
2023-04-09T07:57:02.654Z,13.40
2023-04-09T07:59:30.704Z,13.07
2023-04-09T08:01:57.636Z,13.50
2023-04-09T08:04:24.744Z,13.97
2023-04-09T08:06:51.783Z,14.00
2023-04-09T08:09:18.686Z,15.73
2023-04-09T08:11:46.066Z,15.03
2023-04-09T08:14:13.375Z,12.67
2023-04-09T08:16:44.667Z,12.63
2023-04-09T08:19:12.019Z,13.73
2023-04-09T08:21:40.202Z,11.93
2023-04-09T08:24:07.190Z,12.60
2023-04-09T08:26:33.917Z,15.93
2023-04-09T08:29:01.411Z,10.77
2023-04-09T08:31:28.143Z,13.20
2023-04-09T08:33:54.898Z,11.60
2023-04-09T08:36:22.132Z,14.27
2023-04-09T08:38:49.120Z,10.37
2023-04-09T08:41:20.961Z,11.50
2023-04-09T08:43:57.672Z,12.50
2023-04-09T08:46:26.127Z,12.70
2023-04-09T08:48:53.642Z,10.33
2023-04-09T08:51:22.567Z,10.23
2023-04-09T08:53:57.584Z,11.57
2023-04-09T08:56:24.646Z,9.87
2023-04-09T08:58:51.721Z,10.20
2023-04-09T09:01:32.442Z,10.03
2023-04-09T09:04:07.331Z,9.50
2023-04-09T09:06:36.023Z,10.87
2023-04-09T09:09:14.327Z,9.50
2023-04-09T09:11:42.170Z,8.50
2023-04-09T09:14:13.989Z,8.17
2023-04-09T09:17:03.550Z,8.73
2023-04-09T09:19:33.405Z,6.53
2023-04-09T09:22:07.996Z,5.70
2023-04-09T09:24:47.169Z,6.73
2023-04-09T09:27:43.095Z,7.13
2023-04-09T09:30:20.222Z,5.87
2023-04-09T09:32:46.991Z,5.93
2023-04-09T09:35:14.020Z,7.87
2023-04-09T09:37:40.649Z,6.87
2023-04-09T09:40:07.914Z,7.93
2023-04-09T09:42:34.605Z,7.23
2023-04-09T09:45:03.768Z,7.87
2023-04-09T09:47:31.780Z,8.00
2023-04-09T09:49:58.522Z,6.93
2023-04-09T09:52:30.152Z,8.07
2023-04-09T09:55:01.119Z,6.07
2023-04-09T09:57:30.583Z,7.70
2023-04-09T10:00:07.941Z,7.03
2023-04-09T10:02:48.070Z,7.70
2023-04-09T10:05:15.597Z,8.20
2023-04-09T10:07:42.846Z,8.53
2023-04-09T10:10:09.884Z,6.40
2023-04-09T10:12:36.751Z,6.27
2023-04-09T10:15:06.057Z,6.70
2023-04-09T10:17:32.790Z,5.23
2023-04-09T10:20:12.788Z,5.33
2023-04-09T10:22:39.897Z,5.87
2023-04-09T10:25:07.374Z,5.47
2023-04-09T10:27:34.046Z,5.70
2023-04-09T10:30:01.745Z,4.87
2023-04-09T10:32:36.068Z,6.40
2023-04-09T10:35:04.182Z,6.53
2023-04-09T10:37:31.657Z,6.27
2023-04-09T10:39:58.620Z,10.07
2023-04-09T10:42:37.091Z,9.67
2023-04-09T10:45:14.775Z,8.77
2023-04-09T10:47:43.299Z,11.27
2023-04-09T10:50:24.379Z,8.60
2023-04-09T10:53:00.116Z,7.83
2023-04-09T10:55:37.456Z,5.43
2023-04-09T10:58:11.948Z,5.37
2023-04-09T11:00:47.683Z,5.10
2023-04-09T11:03:24.935Z,8.73
2023-04-09T11:05:53.017Z,4.63
2023-04-09T11:08:21.868Z,6.40
2023-04-09T11:10:51.359Z,6.30
2023-04-09T11:13:20.869Z,5.67
2023-04-09T11:15:47.766Z,5.70
2023-04-09T11:18:35.517Z,7.63
2023-04-09T11:21:04.431Z,7.50
2023-04-09T11:23:32.374Z,7.80
2023-04-09T11:25:59.146Z,4.60
2023-04-09T11:28:27.133Z,4.80
2023-04-09T11:30:54.021Z,4.10
2023-04-09T11:33:21.243Z,5.00
2023-04-09T11:35:48.597Z,4.37
2023-04-09T11:38:15.717Z,4.50
2023-04-09T11:40:48.245Z,3.67
2023-04-09T11:43:20.764Z,3.67
2023-04-09T11:45:48.592Z,5.13
2023-04-09T11:48:18.267Z,3.90
2023-04-09T11:50:45.719Z,4.80
2023-04-09T11:53:19.818Z,4.00
2023-04-09T11:55:53.556Z,4.53
2023-04-09T11:58:25.491Z,4.17
2023-04-09T12:00:57.908Z,4.47
2023-04-09T12:03:30.621Z,6.97
2023-04-09T12:06:01.013Z,5.13
2023-04-09T12:08:27.974Z,6.43
2023-04-09T12:10:54.724Z,4.17
2023-04-09T12:13:21.860Z,5.83
2023-04-09T12:15:49.935Z,5.53
2023-04-09T12:18:16.751Z,4.43
2023-04-09T12:20:46.584Z,4.87
2023-04-09T12:23:13.736Z,5.90
2023-04-09T12:25:42.881Z,4.73
2023-04-09T12:28:15.474Z,6.00
2023-04-09T12:30:43.222Z,6.23
2023-04-09T12:33:11.105Z,6.07
2023-04-09T12:35:38.624Z,6.77
2023-04-09T12:38:05.562Z,5.73
2023-04-09T12:40:32.277Z,6.03
2023-04-09T12:42:59.088Z,4.93
2023-04-09T12:45:25.989Z,5.23
2023-04-09T12:47:53.008Z,4.70
2023-04-09T12:50:20.012Z,5.43
2023-04-09T12:52:47.027Z,7.03
2023-04-09T12:55:14.884Z,5.03
2023-04-09T12:57:45.847Z,4.90
2023-04-09T13:00:13.417Z,5.00
2023-04-09T13:02:40.657Z,7.77
2023-04-09T13:05:07.842Z,4.90
2023-04-09T13:07:34.533Z,5.00
2023-04-09T13:10:01.402Z,5.10
2023-04-09T13:12:28.154Z,3.97
2023-04-09T13:14:55.106Z,4.53
2023-04-09T13:17:22.520Z,4.70
2023-04-09T13:19:50.602Z,4.63
2023-04-09T13:22:18.253Z,5.30
2023-04-09T13:24:44.919Z,5.07
2023-04-09T13:27:11.678Z,4.33
2023-04-09T13:29:38.770Z,4.77
2023-04-09T13:32:10.713Z,5.07
2023-04-09T13:34:38.858Z,4.83
2023-04-09T13:37:05.585Z,3.70
2023-04-09T13:39:32.830Z,4.00
2023-04-09T13:42:01.315Z,4.13
2023-04-09T13:44:28.998Z,5.07
2023-04-09T13:46:55.676Z,4.23
2023-04-09T13:49:22.424Z,4.73
2023-04-09T13:51:50.118Z,4.17
2023-04-09T13:54:17.436Z,5.03
2023-04-09T13:56:45.417Z,3.67
2023-04-09T13:59:12.482Z,7.30
2023-04-09T14:01:39.210Z,3.90
2023-04-09T14:04:06.113Z,3.07
2023-04-09T14:06:32.894Z,4.10
2023-04-09T14:08:59.555Z,4.27
2023-04-09T14:11:26.262Z,4.17
2023-04-09T14:13:53.307Z,4.50
2023-04-09T14:16:20.358Z,3.40
2023-04-09T14:18:47.101Z,4.23
2023-04-09T14:21:13.921Z,5.27
2023-04-09T14:23:40.634Z,4.07
2023-04-09T14:26:07.680Z,3.43
2023-04-09T14:28:34.493Z,5.20
2023-04-09T14:31:01.573Z,4.07
2023-04-09T14:33:28.523Z,3.90
2023-04-09T14:35:55.386Z,4.33
2023-04-09T14:38:24.064Z,4.87
2023-04-09T14:40:51.485Z,5.00
2023-04-09T14:43:18.361Z,6.03
2023-04-09T14:45:45.099Z,6.00
2023-04-09T14:48:11.819Z,3.80
2023-04-09T14:50:38.540Z,10.17
2023-04-09T14:53:05.264Z,6.23
2023-04-09T14:55:32.094Z,4.40
2023-04-09T14:58:01.476Z,3.90
2023-04-09T15:00:28.265Z,3.40
2023-04-09T15:02:55.286Z,3.53
2023-04-09T15:05:22.383Z,3.60
2023-04-09T15:07:49.065Z,2.90
2023-04-09T15:10:15.865Z,4.10
2023-04-09T15:12:42.569Z,3.23
2023-04-09T15:15:09.779Z,4.20
2023-04-09T15:17:36.755Z,3.17
2023-04-09T15:20:04.101Z,3.17
2023-04-09T15:22:31.097Z,3.37
2023-04-09T15:24:57.916Z,5.10
2023-04-09T15:27:24.606Z,3.23
2023-04-09T15:29:51.899Z,3.43
2023-04-09T15:32:19.206Z,3.73
2023-04-09T15:34:46.040Z,7.70
2023-04-09T15:37:12.967Z,4.10
2023-04-09T15:39:39.708Z,3.57
2023-04-09T15:42:08.751Z,4.33
2023-04-09T15:44:36.773Z,3.43
2023-04-09T15:47:03.489Z,4.20
2023-04-09T15:49:30.212Z,3.40
2023-04-09T15:51:56.863Z,2.77
2023-04-09T15:54:23.593Z,3.10
2023-04-09T15:56:50.285Z,3.10
2023-04-09T15:59:18.932Z,3.20
2023-04-09T16:01:45.823Z,3.10
2023-04-09T16:04:12.696Z,5.30
2023-04-09T16:06:39.565Z,2.17
2023-04-09T16:09:06.356Z,3.53
2023-04-09T16:11:35.795Z,2.97
2023-04-09T16:14:02.602Z,4.07
2023-04-09T16:16:29.522Z,3.20
2023-04-09T16:18:56.424Z,5.70
2023-04-09T16:21:23.185Z,3.83
2023-04-09T16:23:49.839Z,3.37
2023-04-09T16:26:16.574Z,3.30
2023-04-09T16:28:43.306Z,2.60
2023-04-09T16:31:10.264Z,2.67
2023-04-09T16:33:37.016Z,2.33
2023-04-09T16:36:04.133Z,2.17
2023-04-09T16:38:31.207Z,2.67
2023-04-09T16:40:57.974Z,2.97
2023-04-09T16:43:25.859Z,2.77
2023-04-09T16:45:53.078Z,2.60
2023-04-09T16:48:19.907Z,2.57
2023-04-09T16:50:46.600Z,2.93
2023-04-09T16:53:13.270Z,2.47
2023-04-09T16:55:40.029Z,3.00
2023-04-09T16:58:06.753Z,2.73
2023-04-09T17:00:35.217Z,2.53
2023-04-09T17:03:02.244Z,2.80
2023-04-09T17:05:29.423Z,2.67
2023-04-09T17:07:56.121Z,4.50
2023-04-09T17:10:22.906Z,2.83
2023-04-09T17:12:50.570Z,2.40
2023-04-09T17:15:17.738Z,2.60
2023-04-09T17:17:45.864Z,2.30
2023-04-09T17:20:12.963Z,2.20
2023-04-09T17:22:39.916Z,2.30
2023-04-09T17:25:07.134Z,2.73
2023-04-09T17:27:33.861Z,2.20
2023-04-09T17:30:00.657Z,2.53
2023-04-09T17:32:27.564Z,2.20
2023-04-09T17:34:54.312Z,2.00
2023-04-09T17:37:21.230Z,2.60
2023-04-09T17:39:47.971Z,2.60
2023-04-09T17:42:14.705Z,2.70
2023-04-09T17:44:43.653Z,2.13
2023-04-09T17:47:12.230Z,2.97
2023-04-09T17:49:39.383Z,3.27
2023-04-09T17:52:06.164Z,2.77
2023-04-09T17:54:34.472Z,3.33
2023-04-09T17:57:04.033Z,4.90
2023-04-09T17:59:32.166Z,6.97
2023-04-09T18:01:59.290Z,4.73
2023-04-09T18:04:27.034Z,4.33
2023-04-09T18:06:54.602Z,7.87
2023-04-09T18:09:21.396Z,23.67
2023-04-09T18:11:48.920Z,12.37
2023-04-09T18:14:15.760Z,3.80
2023-04-09T18:16:42.617Z,3.10
2023-04-09T18:19:11.923Z,5.73
2023-04-09T18:21:39.084Z,3.93
2023-04-09T18:24:06.062Z,3.60
2023-04-09T18:26:33.848Z,3.77
2023-04-09T18:29:01.403Z,3.63
2023-04-09T18:31:28.563Z,3.50
2023-04-09T18:33:56.094Z,5.00
2023-04-09T18:36:23.083Z,5.07
2023-04-09T18:38:49.752Z,5.23
2023-04-09T18:41:26.419Z,4.00
2023-04-09T18:43:53.852Z,5.50
2023-04-09T18:46:20.717Z,5.30
2023-04-09T18:48:47.466Z,6.00
2023-04-09T18:51:14.527Z,5.93
2023-04-09T18:53:41.895Z,4.40
2023-04-09T18:56:08.795Z,4.23
2023-04-09T18:58:36.173Z,3.90
2023-04-09T19:01:12.313Z,4.00
2023-04-09T19:03:40.014Z,4.20
2023-04-09T19:06:18.243Z,3.80
2023-04-09T19:08:46.074Z,5.00
2023-04-09T19:11:13.801Z,5.83
2023-04-09T19:13:40.506Z,3.17
2023-04-09T19:16:09.300Z,4.10
2023-04-09T19:18:37.217Z,9.80
2023-04-09T19:21:05.011Z,6.57
2023-04-09T19:23:34.003Z,6.30
2023-04-09T19:26:01.562Z,4.67
2023-04-09T19:28:28.310Z,6.73
2023-04-09T19:30:55.289Z,5.27
2023-04-09T19:33:23.000Z,4.10
2023-04-09T19:35:50.628Z,5.87
2023-04-09T19:38:18.319Z,4.93
2023-04-09T19:40:45.868Z,6.57
2023-04-09T19:43:12.597Z,4.73
2023-04-09T19:45:39.974Z,4.37
2023-04-09T19:48:07.075Z,3.20
2023-04-09T19:50:37.897Z,4.30
2023-04-09T19:53:05.903Z,5.93
2023-04-09T19:55:36.229Z,7.03
2023-04-09T19:58:03.207Z,5.97
2023-04-09T20:00:30.509Z,5.53
2023-04-09T20:02:57.717Z,5.23
2023-04-09T20:05:24.761Z,10.13
2023-04-09T20:07:52.764Z,7.40
2023-04-09T20:10:20.019Z,8.37
2023-04-09T20:12:48.321Z,7.33
2023-04-09T20:15:17.362Z,5.40
2023-04-09T20:17:44.159Z,6.13
2023-04-09T20:20:11.740Z,6.50
2023-04-09T20:22:42.920Z,5.97
2023-04-09T20:25:11.772Z,5.53
2023-04-09T20:27:38.684Z,6.97
2023-04-09T20:30:06.475Z,4.87
2023-04-09T20:32:33.194Z,5.27
2023-04-09T20:34:59.892Z,6.60
2023-04-09T20:37:26.533Z,3.80
2023-04-09T20:39:53.159Z,5.70
2023-04-09T20:42:19.750Z,8.77
2023-04-09T20:44:46.418Z,5.40
2023-04-09T20:47:13.365Z,5.30
2023-04-09T20:49:40.040Z,7.13
2023-04-09T20:52:09.268Z,8.20
2023-04-09T20:54:36.320Z,6.57
2023-04-09T20:57:05.585Z,8.83
2023-04-09T20:59:32.495Z,4.10
2023-04-09T21:01:59.263Z,4.17
2023-04-09T21:04:26.345Z,7.90
2023-04-09T21:06:53.200Z,5.20
2023-04-09T21:09:19.902Z,6.00
2023-04-09T21:11:46.835Z,5.30
2023-04-09T21:14:14.606Z,5.50
2023-04-09T21:16:41.373Z,6.20
2023-04-09T21:19:08.132Z,4.37
2023-04-09T21:21:35.284Z,4.47
2023-04-09T21:24:02.088Z,4.10
2023-04-09T21:26:35.823Z,4.77
2023-04-09T21:29:11.924Z,3.83
2023-04-09T21:31:38.780Z,5.37
2023-04-09T21:34:05.482Z,4.97
2023-04-09T21:36:36.144Z,5.17
2023-04-09T21:39:03.245Z,4.17
2023-04-09T21:41:29.956Z,5.17
2023-04-09T21:43:56.661Z,6.77
2023-04-09T21:46:23.608Z,7.30
2023-04-09T21:48:50.324Z,9.80
2023-04-09T21:51:17.004Z,7.40
2023-04-09T21:53:43.641Z,8.23
2023-04-09T21:56:10.288Z,6.03
2023-04-09T21:58:36.998Z,6.87
2023-04-09T22:01:03.751Z,6.67
2023-04-09T22:03:30.661Z,5.70
2023-04-09T22:05:57.520Z,5.00
2023-04-09T22:08:24.306Z,8.37
2023-04-09T22:10:51.029Z,7.63
2023-04-09T22:13:17.662Z,6.23
2023-04-09T22:15:44.319Z,4.70
2023-04-09T22:18:10.973Z,7.20
2023-04-09T22:20:37.616Z,5.27
2023-04-09T22:23:04.249Z,8.10
2023-04-09T22:25:34.849Z,6.50
2023-04-09T22:28:01.868Z,6.20
2023-04-09T22:30:28.615Z,10.40
2023-04-09T22:32:55.289Z,9.43
2023-04-09T22:35:21.962Z,8.50
2023-04-09T22:37:48.617Z,5.90
2023-04-09T22:40:16.016Z,6.47
2023-04-09T22:42:43.911Z,7.33
2023-04-09T22:45:11.168Z,5.90
2023-04-09T22:47:38.650Z,5.10
2023-04-09T22:50:06.949Z,5.80
2023-04-09T22:52:33.600Z,6.00
2023-04-09T22:55:00.366Z,5.17
2023-04-09T22:57:27.049Z,5.60
2023-04-09T22:59:53.750Z,6.20
2023-04-09T23:02:20.656Z,4.97
2023-04-09T23:04:47.630Z,5.07
2023-04-09T23:07:14.330Z,5.13
2023-04-09T23:09:41.246Z,6.43
2023-04-09T23:12:07.906Z,6.73
2023-04-09T23:14:34.593Z,6.70
2023-04-09T23:17:01.233Z,6.47
2023-04-09T23:19:27.882Z,9.23
2023-04-09T23:21:54.521Z,7.53
2023-04-09T23:24:21.223Z,8.63
2023-04-09T23:26:47.843Z,7.07
2023-04-09T23:29:14.492Z,7.93
2023-04-09T23:31:41.360Z,7.30
2023-04-09T23:34:08.095Z,7.00
2023-04-09T23:36:34.786Z,8.17
2023-04-09T23:39:01.446Z,5.97
2023-04-09T23:41:28.092Z,6.70
2023-04-09T23:43:55.116Z,7.23
2023-04-09T23:46:22.759Z,7.23
2023-04-09T23:48:49.470Z,10.23
2023-04-09T23:51:19.668Z,6.00
2023-04-09T23:53:46.711Z,8.23
2023-04-09T23:56:16.510Z,6.63
2023-04-09T23:58:43.338Z,7.03
